Airfield :
LOGIN :

Register | Disclaimer

   EN    FR    IT 

 










Legend :    VFR   Marginal VFR   IFR   Intensive IFR   Very Intensive IFR
Visi :
Ceiling :
>= 8 km
>= 3000ft
5 to 8 km
1000 to 3000 ft
1500m to 5 km
500 to 1000 ft
800 to 1500m
200 to 500 ft
< 800m
< 200 ft
Symbols :   Thunderstorms  Fog  Heavy snow  Heavy precipitations  Wind > 20 kt
SIGMETs :     Misc.  Thunderstorms  Icing  Turbulence  Mountain Waves  Volcanic Ashes






- Airport Elevation : 436 ft
- IATA code : ANG


LFBU - Angoulême Brie Champniers

CURRENT METAR :
  • 191400Z AUTO 26012KT 9999 BKN042 20/10 Q1019 NOSIG

EXPIRED METARs :
  • 191330Z AUTO 27010KT 240V300 9999 OVC038 20/11 Q1019 NOSIG
  • 191300Z AUTO 28011KT 9999 BKN038 OVC092 20/11 Q1019 NOSIG
  • 191230Z AUTO 27012KT 9999 FEW026 BKN044 OVC088 20/11 Q1018 NOSIG
  • 191200Z AUTO 28012KT 9999 OVC042 19/12 Q1019 NOSIG
  • 191130Z AUTO 27012KT 9999 FEW018 SCT031 OVC037 18/13 Q1019 NOSIG

TAF TAF LFBU
Valid from the 19 at 12:00 until the 20 at 12:00 UTC


191100Z 1912/2012 27010KT 9999 SCT030
PROB30
TEMPO 1916/2001 4000 SHRA BKN020TCU
PROB30 2001/2006 2000 BR BKN003



MET'MAP, your aeronautical weather chart ! - Copyright ORBIFLY December 2007 - Disclaimer

ORBIFLY MET'MAP TEAM :

Programming & Development : Alexandra Zaïnal
Concept & original design : Baudouin d'Aumeries
Assistance for programming : Marc-Olivier Méhu
Technical & hardware support : Manuel Goepfert

Contact : metmap@orbifly.com




SOURCES & CREDITS :

   NOAA